sensor_id;sensor_type;location;lat;lon;timestamp;temperature;humidity
71843;DHT22;59691;-36.632;-64.320;2023-02-28T00:00:18;27.90;35.30
71843;DHT22;59691;-36.632;-64.320;2023-02-28T00:02:44;27.90;35.20
71843;DHT22;59691;-36.632;-64.320;2023-02-28T00:05:12;27.90;35.30
71843;DHT22;59691;-36.632;-64.320;2023-02-28T00:07:39;27.90;35.40
71843;DHT22;59691;-36.632;-64.320;2023-02-28T00:10:06;27.80;35.40
71843;DHT22;59691;-36.632;-64.320;2023-02-28T00:12:34;27.80;34.90
71843;DHT22;59691;-36.632;-64.320;2023-02-28T00:15:01;27.80;35.50
71843;DHT22;59691;-36.632;-64.320;2023-02-28T00:17:27;27.80;35.50
71843;DHT22;59691;-36.632;-64.320;2023-02-28T00:19:54;27.80;35.50
71843;DHT22;59691;-36.632;-64.320;2023-02-28T00:22:21;27.80;35.50
71843;DHT22;59691;-36.632;-64.320;2023-02-28T00:24:47;27.80;35.60
71843;DHT22;59691;-36.632;-64.320;2023-02-28T00:27:14;27.70;35.60
71843;DHT22;59691;-36.632;-64.320;2023-02-28T00:29:40;27.70;35.60
71843;DHT22;59691;-36.632;-64.320;2023-02-28T00:32:07;27.70;35.60
71843;DHT22;59691;-36.632;-64.320;2023-02-28T00:34:33;27.70;35.60
71843;DHT22;59691;-36.632;-64.320;2023-02-28T00:37:06;27.70;35.70
71843;DHT22;59691;-36.632;-64.320;2023-02-28T00:39:36;27.70;35.70
71843;DHT22;59691;-36.632;-64.320;2023-02-28T00:42:03;27.70;35.70
71843;DHT22;59691;-36.632;-64.320;2023-02-28T00:44:29;27.70;35.80
71843;DHT22;59691;-36.632;-64.320;2023-02-28T00:46:56;27.70;35.90
71843;DHT22;59691;-36.632;-64.320;2023-02-28T00:49:23;27.60;35.80
71843;DHT22;59691;-36.632;-64.320;2023-02-28T00:51:49;27.60;35.90
71843;DHT22;59691;-36.632;-64.320;2023-02-28T00:54:16;27.60;35.90
71843;DHT22;59691;-36.632;-64.320;2023-02-28T00:56:42;27.60;35.90
71843;DHT22;59691;-36.632;-64.320;2023-02-28T00:59:09;27.60;36.00
71843;DHT22;59691;-36.632;-64.320;2023-02-28T01:01:36;27.60;36.00
71843;DHT22;59691;-36.632;-64.320;2023-02-28T01:04:03;27.60;36.00
71843;DHT22;59691;-36.632;-64.320;2023-02-28T01:06:30;27.60;36.10
71843;DHT22;59691;-36.632;-64.320;2023-02-28T01:08:57;27.60;36.10
71843;DHT22;59691;-36.632;-64.320;2023-02-28T01:11:24;27.60;35.70
71843;DHT22;59691;-36.632;-64.320;2023-02-28T01:13:51;27.60;36.10
71843;DHT22;59691;-36.632;-64.320;2023-02-28T01:16:17;27.50;36.20
71843;DHT22;59691;-36.632;-64.320;2023-02-28T01:18:43;27.50;36.30
71843;DHT22;59691;-36.632;-64.320;2023-02-28T01:21:11;27.50;36.30
71843;DHT22;59691;-36.632;-64.320;2023-02-28T01:23:39;27.50;36.30
71843;DHT22;59691;-36.632;-64.320;2023-02-28T01:28:32;27.50;36.30
71843;DHT22;59691;-36.632;-64.320;2023-02-28T01:30:58;27.50;36.30
71843;DHT22;59691;-36.632;-64.320;2023-02-28T01:33:25;27.50;36.30
71843;DHT22;59691;-36.632;-64.320;2023-02-28T01:36:02;27.40;36.40
71843;DHT22;59691;-36.632;-64.320;2023-02-28T01:38:28;27.40;36.50
71843;DHT22;59691;-36.632;-64.320;2023-02-28T01:40:55;27.40;36.50
71843;DHT22;59691;-36.632;-64.320;2023-02-28T01:43:26;27.40;36.60
71843;DHT22;59691;-36.632;-64.320;2023-02-28T01:45:53;27.40;36.60
71843;DHT22;59691;-36.632;-64.320;2023-02-28T01:48:21;27.40;36.70
71843;DHT22;59691;-36.632;-64.320;2023-02-28T01:50:51;27.40;36.70
71843;DHT22;59691;-36.632;-64.320;2023-02-28T01:53:21;27.40;36.70
71843;DHT22;59691;-36.632;-64.320;2023-02-28T01:55:48;27.40;36.70
71843;DHT22;59691;-36.632;-64.320;2023-02-28T01:58:15;27.30;36.60
71843;DHT22;59691;-36.632;-64.320;2023-02-28T02:00:42;27.30;36.80
71843;DHT22;59691;-36.632;-64.320;2023-02-28T02:03:09;27.30;36.70
71843;DHT22;59691;-36.632;-64.320;2023-02-28T02:05:37;27.30;36.70
71843;DHT22;59691;-36.632;-64.320;2023-02-28T02:08:04;27.30;36.80
71843;DHT22;59691;-36.632;-64.320;2023-02-28T02:18:17;27.20;36.80
71843;DHT22;59691;-36.632;-64.320;2023-02-28T02:20:47;27.20;36.80
71843;DHT22;59691;-36.632;-64.320;2023-02-28T02:26:06;27.20;36.90
71843;DHT22;59691;-36.632;-64.320;2023-02-28T02:36:13;27.10;37.00
71843;DHT22;59691;-36.632;-64.320;2023-02-28T02:38:53;27.10;37.00
71843;DHT22;59691;-36.632;-64.320;2023-02-28T02:41:28;27.10;37.00
71843;DHT22;59691;-36.632;-64.320;2023-02-28T02:44:05;27.10;37.10
71843;DHT22;59691;-36.632;-64.320;2023-02-28T02:46:33;27.00;37.10
71843;DHT22;59691;-36.632;-64.320;2023-02-28T02:49:01;27.00;37.00
71843;DHT22;59691;-36.632;-64.320;2023-02-28T02:51:30;27.00;37.10
71843;DHT22;59691;-36.632;-64.320;2023-02-28T02:53:58;27.00;37.00
71843;DHT22;59691;-36.632;-64.320;2023-02-28T02:56:26;27.00;37.00
71843;DHT22;59691;-36.632;-64.320;2023-02-28T02:58:55;27.00;37.10
71843;DHT22;59691;-36.632;-64.320;2023-02-28T03:01:23;27.00;37.10
71843;DHT22;59691;-36.632;-64.320;2023-02-28T03:03:58;27.00;37.70
71843;DHT22;59691;-36.632;-64.320;2023-02-28T03:06:25;27.00;37.10
71843;DHT22;59691;-36.632;-64.320;2023-02-28T03:08:52;26.90;37.10
71843;DHT22;59691;-36.632;-64.320;2023-02-28T03:11:18;27.00;36.70
71843;DHT22;59691;-36.632;-64.320;2023-02-28T03:19:06;26.90;37.20
71843;DHT22;59691;-36.632;-64.320;2023-02-28T03:24:08;26.90;37.30
71843;DHT22;59691;-36.632;-64.320;2023-02-28T03:26:39;26.90;37.30
71843;DHT22;59691;-36.632;-64.320;2023-02-28T03:34:41;26.80;37.30
71843;DHT22;59691;-36.632;-64.320;2023-02-28T03:37:11;26.80;37.30
71843;DHT22;59691;-36.632;-64.320;2023-02-28T03:39:41;26.80;37.40
71843;DHT22;59691;-36.632;-64.320;2023-02-28T03:42:13;26.80;37.30
71843;DHT22;59691;-36.632;-64.320;2023-02-28T03:44:41;26.80;37.50
71843;DHT22;59691;-36.632;-64.320;2023-02-28T03:47:10;26.80;37.30
71843;DHT22;59691;-36.632;-64.320;2023-02-28T03:50:19;26.80;37.40
71843;DHT22;59691;-36.632;-64.320;2023-02-28T03:52:27;26.80;37.40
71843;DHT22;59691;-36.632;-64.320;2023-02-28T03:54:56;26.80;37.60
71843;DHT22;59691;-36.632;-64.320;2023-02-28T03:57:32;26.70;37.50
71843;DHT22;59691;-36.632;-64.320;2023-02-28T04:00:03;26.70;37.40
71843;DHT22;59691;-36.632;-64.320;2023-02-28T04:02:31;26.70;37.40
71843;DHT22;59691;-36.632;-64.320;2023-02-28T04:04:59;26.70;37.40
71843;DHT22;59691;-36.632;-64.320;2023-02-28T04:07:28;26.70;37.50
71843;DHT22;59691;-36.632;-64.320;2023-02-28T04:09:55;26.70;37.60
71843;DHT22;59691;-36.632;-64.320;2023-02-28T04:12:21;26.70;37.20
71843;DHT22;59691;-36.632;-64.320;2023-02-28T04:14:49;26.70;37.60
71843;DHT22;59691;-36.632;-64.320;2023-02-28T04:17:16;26.60;37.70
71843;DHT22;59691;-36.632;-64.320;2023-02-28T04:19:42;26.60;37.70
71843;DHT22;59691;-36.632;-64.320;2023-02-28T04:22:09;26.60;37.60
71843;DHT22;59691;-36.632;-64.320;2023-02-28T04:24:36;26.60;37.80
71843;DHT22;59691;-36.632;-64.320;2023-02-28T04:27:08;26.60;37.80
71843;DHT22;59691;-36.632;-64.320;2023-02-28T04:29:34;26.60;37.70
71843;DHT22;59691;-36.632;-64.320;2023-02-28T04:32:01;26.60;37.80
71843;DHT22;59691;-36.632;-64.320;2023-02-28T04:34:29;26.60;37.80
71843;DHT22;59691;-36.632;-64.320;2023-02-28T04:36:56;26.60;37.90
71843;DHT22;59691;-36.632;-64.320;2023-02-28T04:39:23;26.60;37.80
71843;DHT22;59691;-36.632;-64.320;2023-02-28T04:41:50;26.60;37.80
71843;DHT22;59691;-36.632;-64.320;2023-02-28T04:44:16;26.60;37.90
71843;DHT22;59691;-36.632;-64.320;2023-02-28T04:46:43;26.60;37.80
71843;DHT22;59691;-36.632;-64.320;2023-02-28T04:49:10;26.60;37.90
71843;DHT22;59691;-36.632;-64.320;2023-02-28T04:51:37;26.50;37.90
71843;DHT22;59691;-36.632;-64.320;2023-02-28T04:54:03;26.50;38.00
71843;DHT22;59691;-36.632;-64.320;2023-02-28T04:56:30;26.50;38.00
71843;DHT22;59691;-36.632;-64.320;2023-02-28T04:58:56;26.50;38.00
71843;DHT22;59691;-36.632;-64.320;2023-02-28T05:01:27;26.50;38.10
71843;DHT22;59691;-36.632;-64.320;2023-02-28T05:03:55;26.50;38.20
71843;DHT22;59691;-36.632;-64.320;2023-02-28T05:06:22;26.40;38.00
71843;DHT22;59691;-36.632;-64.320;2023-02-28T05:08:49;26.40;38.00
71843;DHT22;59691;-36.632;-64.320;2023-02-28T05:13:45;26.40;38.20
71843;DHT22;59691;-36.632;-64.320;2023-02-28T05:16:12;26.40;38.30
71843;DHT22;59691;-36.632;-64.320;2023-02-28T05:18:39;26.40;38.30
71843;DHT22;59691;-36.632;-64.320;2023-02-28T05:21:05;26.40;38.40
71843;DHT22;59691;-36.632;-64.320;2023-02-28T05:23:32;26.30;38.20
71843;DHT22;59691;-36.632;-64.320;2023-02-28T05:25:58;26.30;38.30
71843;DHT22;59691;-36.632;-64.320;2023-02-28T05:28:25;26.30;38.30
71843;DHT22;59691;-36.632;-64.320;2023-02-28T05:30:51;26.30;38.40
71843;DHT22;59691;-36.632;-64.320;2023-02-28T05:33:18;26.30;38.30
71843;DHT22;59691;-36.632;-64.320;2023-02-28T05:35:44;26.30;38.40
71843;DHT22;59691;-36.632;-64.320;2023-02-28T05:38:10;26.30;38.40
71843;DHT22;59691;-36.632;-64.320;2023-02-28T05:40:38;26.30;38.40
71843;DHT22;59691;-36.632;-64.320;2023-02-28T05:43:05;26.30;38.50
71843;DHT22;59691;-36.632;-64.320;2023-02-28T05:45:31;26.20;38.50
71843;DHT22;59691;-36.632;-64.320;2023-02-28T05:47:58;26.20;38.50
71843;DHT22;59691;-36.632;-64.320;2023-02-28T05:50:24;26.20;38.50
71843;DHT22;59691;-36.632;-64.320;2023-02-28T05:52:51;26.20;38.60
71843;DHT22;59691;-36.632;-64.320;2023-02-28T05:55:17;26.20;38.50
71843;DHT22;59691;-36.632;-64.320;2023-02-28T05:57:44;26.20;38.50
71843;DHT22;59691;-36.632;-64.320;2023-02-28T06:00:11;26.20;39.20
71843;DHT22;59691;-36.632;-64.320;2023-02-28T06:02:38;26.20;38.60
71843;DHT22;59691;-36.632;-64.320;2023-02-28T06:05:09;26.20;38.60
71843;DHT22;59691;-36.632;-64.320;2023-02-28T06:07:38;26.10;38.50
71843;DHT22;59691;-36.632;-64.320;2023-02-28T06:10:05;26.10;38.50
71843;DHT22;59691;-36.632;-64.320;2023-02-28T06:12:31;26.10;38.10
71843;DHT22;59691;-36.632;-64.320;2023-02-28T06:14:58;26.10;38.60
71843;DHT22;59691;-36.632;-64.320;2023-02-28T06:17:24;26.10;38.60
71843;DHT22;59691;-36.632;-64.320;2023-02-28T06:19:51;26.10;38.60
71843;DHT22;59691;-36.632;-64.320;2023-02-28T06:22:17;26.10;38.60
71843;DHT22;59691;-36.632;-64.320;2023-02-28T06:24:43;26.10;38.60
71843;DHT22;59691;-36.632;-64.320;2023-02-28T06:27:10;26.10;38.70
71843;DHT22;59691;-36.632;-64.320;2023-02-28T06:29:36;26.00;38.60
71843;DHT22;59691;-36.632;-64.320;2023-02-28T06:32:05;26.00;38.60
71843;DHT22;59691;-36.632;-64.320;2023-02-28T06:34:32;26.00;38.70
71843;DHT22;59691;-36.632;-64.320;2023-02-28T06:36:59;26.00;38.70
71843;DHT22;59691;-36.632;-64.320;2023-02-28T06:39:29;26.00;38.70
71843;DHT22;59691;-36.632;-64.320;2023-02-28T06:41:56;26.00;38.80
71843;DHT22;59691;-36.632;-64.320;2023-02-28T06:44:22;26.00;38.80
71843;DHT22;59691;-36.632;-64.320;2023-02-28T06:46:49;25.90;38.70
71843;DHT22;59691;-36.632;-64.320;2023-02-28T06:49:16;26.00;38.80
71843;DHT22;59691;-36.632;-64.320;2023-02-28T06:51:43;26.00;38.80
71843;DHT22;59691;-36.632;-64.320;2023-02-28T06:54:13;25.90;38.80
71843;DHT22;59691;-36.632;-64.320;2023-02-28T06:56:39;25.90;38.80
71843;DHT22;59691;-36.632;-64.320;2023-02-28T06:59:06;25.90;38.80
71843;DHT22;59691;-36.632;-64.320;2023-02-28T07:01:32;25.90;38.80
71843;DHT22;59691;-36.632;-64.320;2023-02-28T07:03:59;25.90;38.90
71843;DHT22;59691;-36.632;-64.320;2023-02-28T07:06:26;25.90;38.90
71843;DHT22;59691;-36.632;-64.320;2023-02-28T07:08:52;25.90;38.90
71843;DHT22;59691;-36.632;-64.320;2023-02-28T07:11:20;25.90;38.50
71843;DHT22;59691;-36.632;-64.320;2023-02-28T07:13:48;25.80;39.00
71843;DHT22;59691;-36.632;-64.320;2023-02-28T07:16:15;25.80;39.00
71843;DHT22;59691;-36.632;-64.320;2023-02-28T07:18:41;25.80;39.60
71843;DHT22;59691;-36.632;-64.320;2023-02-28T07:21:08;25.80;39.10
71843;DHT22;59691;-36.632;-64.320;2023-02-28T07:23:35;25.80;39.10
71843;DHT22;59691;-36.632;-64.320;2023-02-28T07:26:04;25.80;39.10
71843;DHT22;59691;-36.632;-64.320;2023-02-28T07:28:30;25.80;39.20
71843;DHT22;59691;-36.632;-64.320;2023-02-28T07:30:56;25.80;39.80
71843;DHT22;59691;-36.632;-64.320;2023-02-28T07:33:23;25.80;39.30
71843;DHT22;59691;-36.632;-64.320;2023-02-28T07:35:49;25.70;39.30
71843;DHT22;59691;-36.632;-64.320;2023-02-28T07:38:16;25.70;39.40
71843;DHT22;59691;-36.632;-64.320;2023-02-28T07:40:42;25.70;39.30
71843;DHT22;59691;-36.632;-64.320;2023-02-28T07:43:09;25.70;39.40
71843;DHT22;59691;-36.632;-64.320;2023-02-28T07:45:36;25.70;39.50
71843;DHT22;59691;-36.632;-64.320;2023-02-28T07:48:02;25.70;39.60
71843;DHT22;59691;-36.632;-64.320;2023-02-28T07:50:29;25.70;39.60
71843;DHT22;59691;-36.632;-64.320;2023-02-28T07:52:57;25.70;39.60
71843;DHT22;59691;-36.632;-64.320;2023-02-28T07:55:24;25.70;39.70
71843;DHT22;59691;-36.632;-64.320;2023-02-28T07:57:50;25.70;39.70
71843;DHT22;59691;-36.632;-64.320;2023-02-28T08:00:17;25.60;39.70
71843;DHT22;59691;-36.632;-64.320;2023-02-28T08:02:43;25.60;39.80
71843;DHT22;59691;-36.632;-64.320;2023-02-28T08:05:10;25.60;39.90
71843;DHT22;59691;-36.632;-64.320;2023-02-28T08:07:36;25.60;39.90
71843;DHT22;59691;-36.632;-64.320;2023-02-28T08:10:03;25.60;39.90
71843;DHT22;59691;-36.632;-64.320;2023-02-28T08:12:31;25.60;39.50
71843;DHT22;59691;-36.632;-64.320;2023-02-28T08:14:57;25.60;40.10
71843;DHT22;59691;-36.632;-64.320;2023-02-28T08:17:24;25.60;40.10
71843;DHT22;59691;-36.632;-64.320;2023-02-28T08:19:50;25.50;40.10
71843;DHT22;59691;-36.632;-64.320;2023-02-28T08:22:16;25.60;40.20
71843;DHT22;59691;-36.632;-64.320;2023-02-28T08:24:43;25.60;40.30
71843;DHT22;59691;-36.632;-64.320;2023-02-28T08:27:09;25.50;40.30
71843;DHT22;59691;-36.632;-64.320;2023-02-28T08:29:39;25.50;40.30
71843;DHT22;59691;-36.632;-64.320;2023-02-28T08:32:06;25.50;40.30
71843;DHT22;59691;-36.632;-64.320;2023-02-28T08:34:32;25.50;40.40
71843;DHT22;59691;-36.632;-64.320;2023-02-28T08:36:59;25.50;40.60
71843;DHT22;59691;-36.632;-64.320;2023-02-28T08:39:26;25.50;40.70
71843;DHT22;59691;-36.632;-64.320;2023-02-28T08:41:52;25.50;40.70
71843;DHT22;59691;-36.632;-64.320;2023-02-28T08:44:18;25.40;40.70
71843;DHT22;59691;-36.632;-64.320;2023-02-28T08:46:45;25.40;41.00
71843;DHT22;59691;-36.632;-64.320;2023-02-28T08:49:11;25.40;41.00
71843;DHT22;59691;-36.632;-64.320;2023-02-28T08:51:38;25.40;41.00
71843;DHT22;59691;-36.632;-64.320;2023-02-28T08:54:04;25.40;41.10
71843;DHT22;59691;-36.632;-64.320;2023-02-28T08:56:31;25.40;41.20
71843;DHT22;59691;-36.632;-64.320;2023-02-28T08:58:57;25.40;41.40
71843;DHT22;59691;-36.632;-64.320;2023-02-28T09:01:25;25.40;41.50
71843;DHT22;59691;-36.632;-64.320;2023-02-28T09:03:53;25.40;41.60
71843;DHT22;59691;-36.632;-64.320;2023-02-28T09:06:21;25.40;41.70
71843;DHT22;59691;-36.632;-64.320;2023-02-28T09:08:47;25.40;41.70
71843;DHT22;59691;-36.632;-64.320;2023-02-28T09:11:14;25.40;41.40
71843;DHT22;59691;-36.632;-64.320;2023-02-28T09:13:40;25.40;41.90
71843;DHT22;59691;-36.632;-64.320;2023-02-28T09:16:08;25.40;42.10
71843;DHT22;59691;-36.632;-64.320;2023-02-28T09:18:34;25.30;42.10
71843;DHT22;59691;-36.632;-64.320;2023-02-28T09:21:04;25.40;42.30
71843;DHT22;59691;-36.632;-64.320;2023-02-28T09:23:31;25.40;42.30
71843;DHT22;59691;-36.632;-64.320;2023-02-28T09:25:57;25.30;42.30
71843;DHT22;59691;-36.632;-64.320;2023-02-28T09:28:24;25.30;42.30
71843;DHT22;59691;-36.632;-64.320;2023-02-28T09:30:52;25.30;42.40
71843;DHT22;59691;-36.632;-64.320;2023-02-28T09:33:19;25.30;42.60
71843;DHT22;59691;-36.632;-64.320;2023-02-28T09:35:47;25.30;42.60
71843;DHT22;59691;-36.632;-64.320;2023-02-28T09:38:14;25.30;42.70
71843;DHT22;59691;-36.632;-64.320;2023-02-28T09:41:14;25.30;42.70
71843;DHT22;59691;-36.632;-64.320;2023-02-28T09:43:34;25.30;42.90
71843;DHT22;59691;-36.632;-64.320;2023-02-28T09:48:30;25.20;43.10
71843;DHT22;59691;-36.632;-64.320;2023-02-28T09:51:03;25.20;43.00
71843;DHT22;59691;-36.632;-64.320;2023-02-28T09:53:34;25.20;43.20
71843;DHT22;59691;-36.632;-64.320;2023-02-28T09:56:02;25.20;43.30
71843;DHT22;59691;-36.632;-64.320;2023-02-28T09:59:13;25.20;43.00
71843;DHT22;59691;-36.632;-64.320;2023-02-28T10:06:48;25.20;43.60
71843;DHT22;59691;-36.632;-64.320;2023-02-28T10:09:17;25.20;43.70
71843;DHT22;59691;-36.632;-64.320;2023-02-28T10:11:44;25.20;43.30
71843;DHT22;59691;-36.632;-64.320;2023-02-28T10:14:18;25.20;43.80
71843;DHT22;59691;-36.632;-64.320;2023-02-28T10:16:47;25.20;43.30
71843;DHT22;59691;-36.632;-64.320;2023-02-28T10:21:46;25.10;43.40
71843;DHT22;59691;-36.632;-64.320;2023-02-28T10:24:21;25.20;43.60
71843;DHT22;59691;-36.632;-64.320;2023-02-28T10:26:49;25.20;43.60
71843;DHT22;59691;-36.632;-64.320;2023-02-28T10:29:18;25.20;44.20
71843;DHT22;59691;-36.632;-64.320;2023-02-28T10:31:44;25.20;44.30
71843;DHT22;59691;-36.632;-64.320;2023-02-28T10:34:12;25.10;44.30
71843;DHT22;59691;-36.632;-64.320;2023-02-28T10:36:39;25.10;43.90
71843;DHT22;59691;-36.632;-64.320;2023-02-28T10:41:50;25.10;44.00
71843;DHT22;59691;-36.632;-64.320;2023-02-28T10:44:21;25.20;44.10
71843;DHT22;59691;-36.632;-64.320;2023-02-28T10:46:48;25.10;44.50
71843;DHT22;59691;-36.632;-64.320;2023-02-28T10:49:22;25.10;44.20
71843;DHT22;59691;-36.632;-64.320;2023-02-28T10:51:51;25.20;44.30
71843;DHT22;59691;-36.632;-64.320;2023-02-28T10:54:19;25.20;44.40
71843;DHT22;59691;-36.632;-64.320;2023-02-28T10:56:56;25.20;44.40
71843;DHT22;59691;-36.632;-64.320;2023-02-28T10:59:31;25.20;44.60
71843;DHT22;59691;-36.632;-64.320;2023-02-28T11:01:57;24.80;50.60
71843;DHT22;59691;-36.632;-64.320;2023-02-28T11:06:59;24.60;52.80
71843;DHT22;59691;-36.632;-64.320;2023-02-28T11:11:55;24.50;54.90
71843;DHT22;59691;-36.632;-64.320;2023-02-28T11:14:23;24.50;55.20
71843;DHT22;59691;-36.632;-64.320;2023-02-28T11:16:50;24.60;55.40
71843;DHT22;59691;-36.632;-64.320;2023-02-28T11:19:26;24.70;55.60
71843;DHT22;59691;-36.632;-64.320;2023-02-28T11:21:58;24.70;55.60
71843;DHT22;59691;-36.632;-64.320;2023-02-28T11:24:28;24.80;56.30
71843;DHT22;59691;-36.632;-64.320;2023-02-28T11:26:56;24.90;56.80
71843;DHT22;59691;-36.632;-64.320;2023-02-28T11:32:03;25.00;56.90
71843;DHT22;59691;-36.632;-64.320;2023-02-28T11:34:29;25.10;57.10
71843;DHT22;59691;-36.632;-64.320;2023-02-28T11:36:56;25.10;57.00
71843;DHT22;59691;-36.632;-64.320;2023-02-28T11:39:23;25.20;57.00
71843;DHT22;59691;-36.632;-64.320;2023-02-28T11:44:36;25.40;57.10
71843;DHT22;59691;-36.632;-64.320;2023-02-28T11:47:19;25.40;57.50
71843;DHT22;59691;-36.632;-64.320;2023-02-28T11:52:20;25.60;56.80
71843;DHT22;59691;-36.632;-64.320;2023-02-28T11:54:51;25.60;56.90
71843;DHT22;59691;-36.632;-64.320;2023-02-28T12:00:39;25.70;56.30
71843;DHT22;59691;-36.632;-64.320;2023-02-28T12:23:28;26.20;55.20
71843;DHT22;59691;-36.632;-64.320;2023-02-28T12:26:00;26.20;55.10
71843;DHT22;59691;-36.632;-64.320;2023-02-28T12:28:32;26.20;55.10
71843;DHT22;59691;-36.632;-64.320;2023-02-28T12:31:05;26.30;54.80
71843;DHT22;59691;-36.632;-64.320;2023-02-28T12:33:33;26.30;55.70
71843;DHT22;59691;-36.632;-64.320;2023-02-28T12:36:03;26.40;57.00
71843;DHT22;59691;-36.632;-64.320;2023-02-28T12:38:41;26.40;57.30
71843;DHT22;59691;-36.632;-64.320;2023-02-28T12:46:53;26.50;57.30
71843;DHT22;59691;-36.632;-64.320;2023-02-28T12:49:32;26.50;57.10
71843;DHT22;59691;-36.632;-64.320;2023-02-28T12:51:59;26.60;57.30
71843;DHT22;59691;-36.632;-64.320;2023-02-28T12:54:31;26.60;57.30
71843;DHT22;59691;-36.632;-64.320;2023-02-28T13:02:18;26.70;56.80
71843;DHT22;59691;-36.632;-64.320;2023-02-28T13:07:40;26.80;56.80
71843;DHT22;59691;-36.632;-64.320;2023-02-28T13:10:12;26.80;56.80
71843;DHT22;59691;-36.632;-64.320;2023-02-28T13:12:50;26.90;56.90
71843;DHT22;59691;-36.632;-64.320;2023-02-28T13:17:50;26.90;57.10
71843;DHT22;59691;-36.632;-64.320;2023-02-28T13:22:44;26.80;57.10
71843;DHT22;59691;-36.632;-64.320;2023-02-28T13:25:53;26.80;57.00
71843;DHT22;59691;-36.632;-64.320;2023-02-28T13:36:32;26.90;56.30
71843;DHT22;59691;-36.632;-64.320;2023-02-28T13:38:43;26.90;56.00
71843;DHT22;59691;-36.632;-64.320;2023-02-28T13:46:22;27.10;55.80
71843;DHT22;59691;-36.632;-64.320;2023-02-28T13:48:49;27.10;55.90
71843;DHT22;59691;-36.632;-64.320;2023-02-28T13:54:19;27.30;55.80
71843;DHT22;59691;-36.632;-64.320;2023-02-28T13:56:57;27.20;55.40
71843;DHT22;59691;-36.632;-64.320;2023-02-28T13:59:36;27.20;55.30
71843;DHT22;59691;-36.632;-64.320;2023-02-28T14:04:47;27.20;54.90
71843;DHT22;59691;-36.632;-64.320;2023-02-28T14:07:23;27.30;54.70
71843;DHT22;59691;-36.632;-64.320;2023-02-28T14:09:56;27.30;54.50
71843;DHT22;59691;-36.632;-64.320;2023-02-28T14:17:54;27.30;54.30
71843;DHT22;59691;-36.632;-64.320;2023-02-28T14:20:22;27.30;54.20
71843;DHT22;59691;-36.632;-64.320;2023-02-28T14:22:58;27.30;54.10
71843;DHT22;59691;-36.632;-64.320;2023-02-28T14:30:51;27.50;53.90
71843;DHT22;59691;-36.632;-64.320;2023-02-28T14:38:19;27.50;53.70
71843;DHT22;59691;-36.632;-64.320;2023-02-28T14:40:47;27.50;53.60
71843;DHT22;59691;-36.632;-64.320;2023-02-28T14:43:25;27.50;53.60
71843;DHT22;59691;-36.632;-64.320;2023-02-28T14:45:52;27.60;53.70
71843;DHT22;59691;-36.632;-64.320;2023-02-28T14:50:51;27.50;53.60
71843;DHT22;59691;-36.632;-64.320;2023-02-28T14:53:19;27.50;53.50
71843;DHT22;59691;-36.632;-64.320;2023-02-28T14:58:25;27.40;53.50
71843;DHT22;59691;-36.632;-64.320;2023-02-28T15:00:53;27.40;53.40
71843;DHT22;59691;-36.632;-64.320;2023-02-28T15:05:53;27.50;54.20
71843;DHT22;59691;-36.632;-64.320;2023-02-28T15:08:20;27.50;54.30
71843;DHT22;59691;-36.632;-64.320;2023-02-28T15:13:19;27.60;54.30
71843;DHT22;59691;-36.632;-64.320;2023-02-28T15:15:53;27.60;54.20
71843;DHT22;59691;-36.632;-64.320;2023-02-28T15:21:17;27.70;54.10
71843;DHT22;59691;-36.632;-64.320;2023-02-28T15:23:46;27.70;54.00
71843;DHT22;59691;-36.632;-64.320;2023-02-28T15:26:19;27.80;54.00
71843;DHT22;59691;-36.632;-64.320;2023-02-28T15:28:46;27.80;54.00
71843;DHT22;59691;-36.632;-64.320;2023-02-28T15:31:23;27.90;54.00
71843;DHT22;59691;-36.632;-64.320;2023-02-28T15:33:53;27.90;54.00
71843;DHT22;59691;-36.632;-64.320;2023-02-28T15:36:20;27.90;53.90
71843;DHT22;59691;-36.632;-64.320;2023-02-28T15:38:51;28.00;53.90
71843;DHT22;59691;-36.632;-64.320;2023-02-28T15:41:23;28.00;53.90
71843;DHT22;59691;-36.632;-64.320;2023-02-28T15:43:49;28.00;53.90
71843;DHT22;59691;-36.632;-64.320;2023-02-28T15:46:36;28.00;54.00
71843;DHT22;59691;-36.632;-64.320;2023-02-28T15:49:03;28.10;54.10
71843;DHT22;59691;-36.632;-64.320;2023-02-28T15:51:33;28.10;53.90
71843;DHT22;59691;-36.632;-64.320;2023-02-28T15:54:02;28.20;53.90
71843;DHT22;59691;-36.632;-64.320;2023-02-28T15:58:55;28.20;53.70
71843;DHT22;59691;-36.632;-64.320;2023-02-28T16:01:26;28.20;53.50
71843;DHT22;59691;-36.632;-64.320;2023-02-28T16:03:54;28.20;53.20
71843;DHT22;59691;-36.632;-64.320;2023-02-28T16:09:03;28.30;52.80
71843;DHT22;59691;-36.632;-64.320;2023-02-28T16:13:57;28.40;52.60
71843;DHT22;59691;-36.632;-64.320;2023-02-28T16:16:24;28.50;52.50
71843;DHT22;59691;-36.632;-64.320;2023-02-28T16:18:51;28.50;52.30
71843;DHT22;59691;-36.632;-64.320;2023-02-28T16:23:44;28.60;52.00
71843;DHT22;59691;-36.632;-64.320;2023-02-28T16:26:16;28.60;51.90
71843;DHT22;59691;-36.632;-64.320;2023-02-28T16:28:44;28.60;51.80
71843;DHT22;59691;-36.632;-64.320;2023-02-28T16:31:10;28.70;51.80
71843;DHT22;59691;-36.632;-64.320;2023-02-28T16:33:42;28.70;51.70
71843;DHT22;59691;-36.632;-64.320;2023-02-28T16:36:13;28.70;51.70
71843;DHT22;59691;-36.632;-64.320;2023-02-28T16:41:06;28.80;51.60
71843;DHT22;59691;-36.632;-64.320;2023-02-28T16:43:32;28.80;51.50
71843;DHT22;59691;-36.632;-64.320;2023-02-28T16:45:59;28.90;51.50
71843;DHT22;59691;-36.632;-64.320;2023-02-28T16:48:27;28.90;51.40
71843;DHT22;59691;-36.632;-64.320;2023-02-28T16:50:53;28.90;51.20
71843;DHT22;59691;-36.632;-64.320;2023-02-28T16:53:19;29.00;51.10
71843;DHT22;59691;-36.632;-64.320;2023-02-28T16:55:46;29.00;51.00
71843;DHT22;59691;-36.632;-64.320;2023-02-28T16:58:13;29.10;51.00
71843;DHT22;59691;-36.632;-64.320;2023-02-28T17:00:41;29.10;50.80
71843;DHT22;59691;-36.632;-64.320;2023-02-28T17:03:20;29.10;50.40
71843;DHT22;59691;-36.632;-64.320;2023-02-28T17:05:48;29.20;50.30
71843;DHT22;59691;-36.632;-64.320;2023-02-28T17:08:14;29.20;50.20
71843;DHT22;59691;-36.632;-64.320;2023-02-28T17:10:42;29.30;50.10
71843;DHT22;59691;-36.632;-64.320;2023-02-28T17:13:08;29.30;50.00
71843;DHT22;59691;-36.632;-64.320;2023-02-28T17:15:35;29.30;50.00
71843;DHT22;59691;-36.632;-64.320;2023-02-28T17:18:02;29.40;49.80
71843;DHT22;59691;-36.632;-64.320;2023-02-28T17:20:28;29.40;49.70
71843;DHT22;59691;-36.632;-64.320;2023-02-28T17:22:55;29.50;49.80
71843;DHT22;59691;-36.632;-64.320;2023-02-28T17:25:22;29.50;49.80
71843;DHT22;59691;-36.632;-64.320;2023-02-28T17:27:50;29.60;49.80
71843;DHT22;59691;-36.632;-64.320;2023-02-28T17:30:18;29.60;49.70
71843;DHT22;59691;-36.632;-64.320;2023-02-28T17:32:44;29.60;49.60
71843;DHT22;59691;-36.632;-64.320;2023-02-28T17:35:11;29.70;49.40
71843;DHT22;59691;-36.632;-64.320;2023-02-28T17:37:38;29.80;49.40
71843;DHT22;59691;-36.632;-64.320;2023-02-28T17:40:05;29.80;49.30